createdAt,value
2023-05-05T00:01:24.221Z,15.81
2023-05-05T00:02:04.563Z,15.81
2023-05-05T00:03:51.042Z,16.15
2023-05-05T00:06:17.999Z,16.08
2023-05-05T00:07:04.447Z,16.08
2023-05-05T00:08:44.462Z,15.77
2023-05-05T00:11:11.513Z,15.97
2023-05-05T00:12:04.505Z,15.97
2023-05-05T00:13:38.542Z,15.92
2023-05-05T00:16:05.970Z,15.73
2023-05-05T00:17:04.620Z,15.73
2023-05-05T00:18:33.921Z,15.69
2023-05-05T00:21:01.049Z,15.27
2023-05-05T00:22:04.628Z,15.27
2023-05-05T00:23:27.596Z,15.69
2023-05-05T00:25:54.124Z,15.84
2023-05-05T00:27:04.554Z,15.84
2023-05-05T00:28:20.933Z,15.86
2023-05-05T00:30:50.662Z,15.88
2023-05-05T00:32:04.601Z,15.88
2023-05-05T00:33:17.099Z,15.90
2023-05-05T00:35:46.890Z,15.89
2023-05-05T00:37:04.612Z,15.89
2023-05-05T00:38:13.306Z,15.89
2023-05-05T00:40:40.103Z,15.02
2023-05-05T00:42:04.820Z,15.02
2023-05-05T00:43:07.656Z,15.54
2023-05-05T00:45:36.923Z,15.77
2023-05-05T00:47:04.884Z,15.77
2023-05-05T00:48:04.256Z,15.40
2023-05-05T00:50:37.406Z,15.62
2023-05-05T00:52:07.827Z,15.62
2023-05-05T00:53:06.579Z,15.27
2023-05-05T00:55:34.365Z,15.49
2023-05-05T00:57:04.672Z,15.49
2023-05-05T00:58:08.107Z,15.32
2023-05-05T01:00:34.567Z,14.87
2023-05-05T01:02:07.060Z,14.87
2023-05-05T01:03:05.213Z,15.21
2023-05-05T01:05:43.586Z,15.12
2023-05-05T01:07:04.724Z,15.12
2023-05-05T01:08:29.381Z,14.40
2023-05-05T01:11:08.264Z,14.93
2023-05-05T01:12:04.879Z,14.93
2023-05-05T01:13:50.160Z,14.94
2023-05-05T01:16:29.633Z,14.91
2023-05-05T01:17:04.748Z,14.91
2023-05-05T01:19:26.485Z,14.89
2023-05-05T01:22:02.745Z,14.39
2023-05-05T01:22:04.778Z,14.39
2023-05-05T01:25:03.524Z,14.75
2023-05-05T01:27:04.792Z,14.75
2023-05-05T01:27:48.296Z,14.69
2023-05-05T01:30:26.738Z,14.62
2023-05-05T01:32:04.819Z,14.62
2023-05-05T01:32:59.855Z,14.53
2023-05-05T01:35:32.824Z,14.43
2023-05-05T01:37:04.862Z,14.43
2023-05-05T01:38:17.085Z,14.34
2023-05-05T01:40:50.165Z,14.09
2023-05-05T01:42:04.880Z,14.09
2023-05-05T01:43:22.313Z,13.81
2023-05-05T01:45:51.538Z,13.95
2023-05-05T01:47:04.874Z,13.95
2023-05-05T01:48:30.045Z,13.99
2023-05-05T01:51:02.892Z,13.93
2023-05-05T01:52:05.190Z,13.93
2023-05-05T01:53:31.182Z,13.51
2023-05-05T01:55:58.391Z,13.88
2023-05-05T01:57:05.104Z,13.88
2023-05-05T01:58:27.064Z,13.81
2023-05-05T02:00:56.719Z,13.74
2023-05-05T02:02:05.194Z,13.74
2023-05-05T02:03:28.846Z,13.36
2023-05-05T02:05:57.580Z,13.54
2023-05-05T02:07:05.723Z,13.54
2023-05-05T02:08:40.159Z,13.57
2023-05-05T02:11:08.707Z,13.49
2023-05-05T02:12:04.993Z,13.49
2023-05-05T02:13:36.745Z,13.23
2023-05-05T02:16:08.702Z,13.37
2023-05-05T02:17:05.002Z,13.37
2023-05-05T02:18:36.703Z,13.35
2023-05-05T02:21:03.883Z,12.82
2023-05-05T02:22:05.078Z,12.82
2023-05-05T02:23:30.738Z,13.28
2023-05-05T02:26:05.468Z,13.23
2023-05-05T02:27:05.192Z,13.23
2023-05-05T02:28:55.524Z,13.13
2023-05-05T02:31:23.974Z,12.95
2023-05-05T02:32:05.089Z,12.95
2023-05-05T02:33:51.975Z,12.70
2023-05-05T02:36:22.106Z,13.05
2023-05-05T02:37:05.181Z,13.05
2023-05-05T02:38:57.832Z,13.07
2023-05-05T02:41:26.338Z,13.12
2023-05-05T02:42:05.157Z,13.12
2023-05-05T02:43:55.820Z,13.15
2023-05-05T02:46:22.334Z,13.07
2023-05-05T02:47:05.159Z,13.07
2023-05-05T02:48:50.876Z,12.89
2023-05-05T02:51:17.236Z,13.23
2023-05-05T02:52:05.185Z,13.23
2023-05-05T02:53:44.133Z,13.27
2023-05-05T02:56:22.451Z,13.21
2023-05-05T02:57:05.211Z,13.21
2023-05-05T02:59:03.108Z,13.00
2023-05-05T03:01:40.575Z,12.94
2023-05-05T03:02:05.589Z,12.94
2023-05-05T03:04:26.517Z,13.08
2023-05-05T03:07:00.022Z,13.09
2023-05-05T03:07:05.422Z,13.09
2023-05-05T03:09:43.563Z,12.80
2023-05-05T03:12:05.285Z,12.80
2023-05-05T03:12:13.667Z,13.08
2023-05-05T03:14:43.162Z,13.02
2023-05-05T03:17:05.346Z,13.02
2023-05-05T03:17:11.652Z,12.96
2023-05-05T03:19:41.856Z,12.84
2023-05-05T03:22:05.319Z,12.84
2023-05-05T03:22:08.858Z,13.00
2023-05-05T03:24:35.437Z,12.81
2023-05-05T03:27:02.745Z,12.58
2023-05-05T03:27:05.305Z,12.58
2023-05-05T03:29:30.440Z,12.46
2023-05-05T03:31:59.133Z,12.69
2023-05-05T03:32:05.381Z,12.69
2023-05-05T03:34:25.767Z,12.45
2023-05-05T03:36:52.406Z,12.33
2023-05-05T03:37:05.536Z,12.33
2023-05-05T03:39:18.843Z,12.51
2023-05-05T03:41:45.241Z,12.32
2023-05-05T03:42:07.763Z,12.32
2023-05-05T03:44:11.796Z,12.43
2023-05-05T03:46:38.152Z,12.42
2023-05-05T03:47:05.376Z,12.42
2023-05-05T03:49:04.622Z,12.23
2023-05-05T03:51:31.642Z,12.21
2023-05-05T03:52:05.442Z,12.21
2023-05-05T03:53:58.053Z,12.09
2023-05-05T03:56:24.484Z,12.36
2023-05-05T03:57:05.431Z,12.36
2023-05-05T03:58:54.154Z,12.37
2023-05-05T04:01:20.788Z,12.41
2023-05-05T04:02:05.499Z,12.41
2023-05-05T04:03:47.313Z,12.35
2023-05-05T04:06:13.868Z,12.37
2023-05-05T04:07:05.527Z,12.37
2023-05-05T04:08:40.508Z,12.41
2023-05-05T04:11:06.921Z,12.50
2023-05-05T04:12:05.498Z,12.50
2023-05-05T04:13:33.282Z,11.74
2023-05-05T04:15:59.926Z,12.27
2023-05-05T04:17:05.581Z,12.27
2023-05-05T04:18:26.444Z,12.44
2023-05-05T04:20:53.078Z,12.19
2023-05-05T04:22:05.576Z,12.19
2023-05-05T04:23:19.525Z,12.42
2023-05-05T04:25:46.361Z,12.63
2023-05-05T04:27:05.608Z,12.63
2023-05-05T04:28:12.744Z,12.35
2023-05-05T04:30:39.402Z,12.13
2023-05-05T04:32:05.718Z,12.13
2023-05-05T04:33:06.252Z,12.69
2023-05-05T04:35:32.790Z,12.36
2023-05-05T04:37:05.609Z,12.36
2023-05-05T04:37:59.238Z,12.65
2023-05-05T04:40:26.322Z,12.96
2023-05-05T04:42:05.640Z,12.96
2023-05-05T04:42:55.268Z,12.93
2023-05-05T04:45:21.682Z,12.58
2023-05-05T04:47:05.617Z,12.58
2023-05-05T04:47:48.823Z,13.00
2023-05-05T04:50:16.493Z,12.62
2023-05-05T04:52:05.603Z,12.62
2023-05-05T04:52:42.830Z,12.15
2023-05-05T04:55:10.600Z,12.78
2023-05-05T04:57:05.633Z,12.78
2023-05-05T04:57:36.929Z,12.49
2023-05-05T05:00:05.153Z,13.09
2023-05-05T05:02:05.722Z,13.09
2023-05-05T05:02:31.605Z,12.53
2023-05-05T05:04:58.192Z,13.25
2023-05-05T05:07:05.693Z,13.25
2023-05-05T05:07:24.607Z,13.90
2023-05-05T05:09:51.015Z,13.95
2023-05-05T05:12:05.617Z,13.95
2023-05-05T05:12:17.384Z,14.32
2023-05-05T05:14:45.301Z,14.43
2023-05-05T05:17:05.889Z,14.43
2023-05-05T05:17:11.675Z,13.85
2023-05-05T05:19:38.114Z,14.05
2023-05-05T05:22:04.463Z,14.67
2023-05-05T05:22:05.626Z,14.67
2023-05-05T05:24:30.897Z,14.86
2023-05-05T05:26:57.248Z,14.98
2023-05-05T05:27:06.811Z,14.98
2023-05-05T05:29:23.612Z,15.12
2023-05-05T05:31:50.266Z,15.22
2023-05-05T05:32:05.671Z,15.22
2023-05-05T05:34:16.640Z,15.36
2023-05-05T05:36:43.081Z,15.21
2023-05-05T05:37:05.610Z,15.21
2023-05-05T05:39:09.444Z,15.83
2023-05-05T05:41:35.883Z,15.81
2023-05-05T05:42:05.639Z,15.81
2023-05-05T05:44:02.288Z,15.98
2023-05-05T05:46:28.734Z,15.77
2023-05-05T05:47:05.640Z,15.77
2023-05-05T05:48:55.527Z,16.12
2023-05-05T05:51:21.917Z,16.17
2023-05-05T05:52:05.612Z,16.17
2023-05-05T05:53:48.853Z,15.94
2023-05-05T05:56:15.528Z,15.98
2023-05-05T05:57:05.668Z,15.98
2023-05-05T05:58:42.292Z,16.29
2023-05-05T06:01:08.793Z,16.11
2023-05-05T06:02:05.750Z,16.11
2023-05-05T06:03:35.384Z,16.01
2023-05-05T06:06:01.895Z,16.24
2023-05-05T06:07:05.635Z,16.24
2023-05-05T06:08:28.301Z,15.90
2023-05-05T06:10:54.674Z,16.03
2023-05-05T06:12:05.704Z,16.03
2023-05-05T06:13:21.639Z,15.78
2023-05-05T06:15:48.142Z,15.99
2023-05-05T06:17:05.718Z,15.99
2023-05-05T06:18:14.516Z,16.46
2023-05-05T06:20:41.042Z,16.44
2023-05-05T06:22:05.656Z,16.44
2023-05-05T06:23:07.383Z,16.41
2023-05-05T06:25:33.880Z,17.03
2023-05-05T06:27:05.608Z,17.03
2023-05-05T06:28:00.527Z,16.92
2023-05-05T06:30:27.220Z,17.21
2023-05-05T06:32:05.683Z,17.21
2023-05-05T06:32:54.290Z,17.46
2023-05-05T06:35:22.097Z,18.06
2023-05-05T06:37:23.704Z,18.06
2023-05-05T06:37:48.498Z,17.46
2023-05-05T06:40:15.185Z,17.90
2023-05-05T06:42:05.626Z,17.90
2023-05-05T06:42:41.812Z,17.60
2023-05-05T06:45:08.657Z,17.46
2023-05-05T06:47:05.694Z,17.46
2023-05-05T06:47:36.012Z,16.63
2023-05-05T06:50:02.393Z,17.62
2023-05-05T06:52:05.639Z,17.62
2023-05-05T06:52:28.714Z,17.74
2023-05-05T06:54:55.324Z,17.62
2023-05-05T06:57:05.664Z,17.62
2023-05-05T06:57:24.029Z,17.27
2023-05-05T06:59:50.548Z,17.80
2023-05-05T07:02:05.770Z,17.80
2023-05-05T07:02:16.953Z,18.22
2023-05-05T07:04:44.022Z,18.19
2023-05-05T07:07:05.656Z,18.19
2023-05-05T07:07:10.506Z,18.66
2023-05-05T07:09:36.977Z,18.76
2023-05-05T07:12:03.628Z,18.64
2023-05-05T07:12:05.655Z,18.64
2023-05-05T07:14:30.115Z,18.21
2023-05-05T07:16:56.515Z,18.18
2023-05-05T07:17:05.642Z,18.18
2023-05-05T07:19:23.546Z,18.58
2023-05-05T07:21:49.933Z,18.31
2023-05-05T07:22:05.704Z,18.31
2023-05-05T07:24:16.322Z,18.02
2023-05-05T07:26:42.997Z,18.53
2023-05-05T07:27:05.648Z,18.53
2023-05-05T07:29:09.387Z,18.60
2023-05-05T07:31:35.909Z,18.86
2023-05-05T07:32:05.706Z,18.86
2023-05-05T07:34:02.301Z,18.73
2023-05-05T07:36:29.003Z,18.66
2023-05-05T07:37:05.650Z,18.66
2023-05-05T07:38:55.376Z,18.64
2023-05-05T07:41:21.809Z,17.47
2023-05-05T07:42:05.637Z,17.47
2023-05-05T07:43:48.335Z,18.00
2023-05-05T07:46:14.861Z,18.26
2023-05-05T07:47:05.640Z,18.26
2023-05-05T07:48:41.913Z,18.89
2023-05-05T07:51:08.858Z,19.20
2023-05-05T07:52:05.627Z,19.20
2023-05-05T07:53:35.267Z,19.37
2023-05-05T07:56:01.662Z,19.72
2023-05-05T07:57:05.677Z,19.72
2023-05-05T07:58:28.033Z,19.83
2023-05-05T08:00:54.533Z,19.33
2023-05-05T08:02:05.754Z,19.33
2023-05-05T08:03:24.292Z,19.41
2023-05-05T08:05:55.878Z,19.04
2023-05-05T08:07:05.709Z,19.04
2023-05-05T08:08:26.793Z,19.04
2023-05-05T08:10:53.280Z,19.13
2023-05-05T08:12:05.625Z,19.13
2023-05-05T08:13:20.182Z,18.85
2023-05-05T08:15:46.933Z,18.29
2023-05-05T08:17:05.655Z,18.29
2023-05-05T08:18:14.643Z,18.37
2023-05-05T08:20:41.263Z,18.98
2023-05-05T08:22:05.689Z,18.98
2023-05-05T08:23:07.762Z,18.60
2023-05-05T08:25:34.098Z,19.55
2023-05-05T08:27:05.760Z,19.55
2023-05-05T08:28:00.656Z,19.92
2023-05-05T08:30:27.173Z,20.10
2023-05-05T08:32:05.650Z,20.10
2023-05-05T08:32:53.798Z,20.19
2023-05-05T08:35:20.439Z,20.36
2023-05-05T08:37:05.843Z,20.36
2023-05-05T08:37:46.971Z,19.67
2023-05-05T08:40:14.477Z,19.88
2023-05-05T08:42:05.660Z,19.88
2023-05-05T08:42:42.021Z,19.73
2023-05-05T08:45:10.469Z,20.54
2023-05-05T08:47:05.770Z,20.54
2023-05-05T08:47:39.159Z,20.35
2023-05-05T08:50:06.783Z,20.27
2023-05-05T08:52:05.638Z,20.27
2023-05-05T08:52:45.055Z,20.66
2023-05-05T08:55:45.222Z,21.22
2023-05-05T08:57:05.631Z,21.22
2023-05-05T08:58:12.781Z,21.92
2023-05-05T09:00:42.831Z,22.08
2023-05-05T09:02:05.694Z,22.08
2023-05-05T09:03:09.987Z,21.92
2023-05-05T09:05:37.029Z,21.04
2023-05-05T09:07:05.652Z,21.04
2023-05-05T09:08:05.724Z,21.80
2023-05-05T09:10:32.679Z,20.33
2023-05-05T09:12:05.630Z,20.33
2023-05-05T09:12:59.168Z,20.77
2023-05-05T09:15:28.401Z,20.57
2023-05-05T09:17:05.759Z,20.57
2023-05-05T09:17:57.920Z,20.89
2023-05-05T09:20:24.581Z,21.28
2023-05-05T09:22:05.644Z,21.28
2023-05-05T09:22:51.153Z,21.39
2023-05-05T09:25:18.292Z,20.78
2023-05-05T09:27:05.680Z,20.78
2023-05-05T09:27:47.032Z,20.99
2023-05-05T09:30:26.902Z,21.18
2023-05-05T09:32:05.978Z,21.18
2023-05-05T09:32:56.825Z,20.91
2023-05-05T09:35:23.663Z,20.63
2023-05-05T09:37:06.745Z,20.63
2023-05-05T09:37:50.200Z,21.44
2023-05-05T09:40:20.306Z,22.14
2023-05-05T09:42:05.624Z,22.14
2023-05-05T09:42:47.416Z,22.05
2023-05-05T09:45:19.937Z,21.92
2023-05-05T09:47:15.055Z,21.92
2023-05-05T09:47:47.058Z,22.11
2023-05-05T09:50:21.470Z,21.87
2023-05-05T09:52:05.646Z,21.87
2023-05-05T09:52:54.430Z,22.21
2023-05-05T09:55:21.037Z,22.50
2023-05-05T09:57:05.680Z,22.50
2023-05-05T09:57:47.474Z,22.00
2023-05-05T10:00:14.514Z,22.16
2023-05-05T10:02:05.682Z,22.16
2023-05-05T10:02:41.153Z,22.54
2023-05-05T10:05:12.885Z,21.95
2023-05-05T10:07:05.648Z,21.95
2023-05-05T10:07:41.681Z,22.89
2023-05-05T10:10:13.386Z,23.25
2023-05-05T10:12:05.655Z,23.25
2023-05-05T10:12:40.785Z,23.15
2023-05-05T10:15:09.394Z,23.13
2023-05-05T10:17:05.649Z,23.13
2023-05-05T10:17:38.486Z,22.65
2023-05-05T10:20:10.742Z,23.03
2023-05-05T10:22:05.633Z,23.03
2023-05-05T10:22:39.360Z,22.19
2023-05-05T10:25:16.056Z,22.28
2023-05-05T10:27:05.668Z,22.28
2023-05-05T10:27:45.579Z,22.77
2023-05-05T10:30:20.143Z,22.88
2023-05-05T10:32:21.451Z,22.88
2023-05-05T10:32:56.938Z,23.15
2023-05-05T10:35:29.321Z,23.00
2023-05-05T10:37:05.715Z,23.00
2023-05-05T10:37:57.701Z,23.05
2023-05-05T10:40:25.015Z,22.54
2023-05-05T10:42:05.773Z,22.54
2023-05-05T10:42:54.042Z,21.82
2023-05-05T10:50:49.457Z,21.61
2023-05-05T10:52:05.653Z,21.61
2023-05-05T10:53:22.067Z,21.43
2023-05-05T10:56:05.935Z,21.64
2023-05-05T10:57:05.660Z,21.64
2023-05-05T10:58:44.116Z,21.28
2023-05-05T11:01:35.375Z,21.34
2023-05-05T11:02:05.775Z,21.34
2023-05-05T11:04:25.313Z,20.59
2023-05-05T11:07:16.624Z,19.61
2023-05-05T11:07:16.848Z,19.61
2023-05-05T11:10:01.496Z,18.59
2023-05-05T11:12:05.654Z,18.59
2023-05-05T11:12:31.792Z,18.22
2023-05-05T11:15:26.408Z,17.92
2023-05-05T11:17:05.675Z,17.92
2023-05-05T11:17:54.340Z,17.62
2023-05-05T11:20:36.752Z,17.46
2023-05-05T11:22:05.670Z,17.46
2023-05-05T11:23:03.311Z,17.40
2023-05-05T11:25:42.220Z,17.36
2023-05-05T11:27:05.653Z,17.36
2023-05-05T11:28:09.775Z,17.43
2023-05-05T11:30:54.510Z,16.84
2023-05-05T11:32:05.669Z,16.84
2023-05-05T11:33:31.583Z,17.12
2023-05-05T11:36:06.009Z,16.93
2023-05-05T11:37:05.775Z,16.93
2023-05-05T11:38:36.361Z,16.79
2023-05-05T11:41:12.630Z,16.31
2023-05-05T11:42:10.185Z,16.31
2023-05-05T11:43:40.119Z,16.57
2023-05-05T11:46:11.772Z,16.24
2023-05-05T11:47:05.676Z,16.24
2023-05-05T11:48:48.411Z,16.84
2023-05-05T11:51:16.419Z,16.18
2023-05-05T11:52:05.650Z,16.18
2023-05-05T11:53:47.826Z,16.71
2023-05-05T11:56:22.339Z,17.03
2023-05-05T11:57:05.673Z,17.03
2023-05-05T11:59:00.876Z,16.91
2023-05-05T12:01:27.384Z,17.17
2023-05-05T12:02:05.713Z,17.17
2023-05-05T12:03:54.000Z,17.21
2023-05-05T12:06:20.755Z,17.15
2023-05-05T12:07:05.676Z,17.15
2023-05-05T12:08:49.691Z,17.53
2023-05-05T12:11:16.179Z,17.43
2023-05-05T12:12:05.764Z,17.43
2023-05-05T12:13:42.786Z,17.98
2023-05-05T12:16:14.243Z,19.29
2023-05-05T12:17:05.798Z,19.29
2023-05-05T12:18:41.507Z,19.45
2023-05-05T12:21:15.979Z,19.90
2023-05-05T12:22:05.673Z,19.90
2023-05-05T12:23:42.521Z,19.89
2023-05-05T12:26:27.351Z,20.55
2023-05-05T12:27:05.708Z,20.55
2023-05-05T12:28:54.169Z,20.52
2023-05-05T12:31:21.139Z,20.31
2023-05-05T12:32:05.862Z,20.31
2023-05-05T12:33:49.113Z,20.81
2023-05-05T12:36:18.550Z,20.97
2023-05-05T12:37:05.832Z,20.97
2023-05-05T12:38:45.145Z,21.17
2023-05-05T12:41:18.535Z,20.94
2023-05-05T12:42:05.666Z,20.94
2023-05-05T12:43:46.294Z,20.95
2023-05-05T12:46:13.548Z,20.86
2023-05-05T12:47:05.681Z,20.86
2023-05-05T12:48:46.416Z,21.14
2023-05-05T12:51:18.296Z,21.28
2023-05-05T12:52:05.678Z,21.28
2023-05-05T12:53:46.632Z,21.45
2023-05-05T12:56:35.038Z,21.24
2023-05-05T12:57:05.630Z,21.24
2023-05-05T12:59:03.869Z,21.23
2023-05-05T13:01:31.153Z,21.11
2023-05-05T13:02:05.777Z,21.11
2023-05-05T13:04:13.956Z,20.67
2023-05-05T13:06:45.573Z,21.41
2023-05-05T13:07:05.682Z,21.41
2023-05-05T13:09:24.729Z,21.28
2023-05-05T13:11:51.497Z,21.28
2023-05-05T13:12:05.678Z,21.28
2023-05-05T13:14:18.055Z,20.81
2023-05-05T13:16:44.726Z,20.28
2023-05-05T13:17:05.721Z,20.28
2023-05-05T13:19:11.126Z,20.18
2023-05-05T13:21:37.764Z,20.16
2023-05-05T13:22:05.756Z,20.16
2023-05-05T13:24:21.444Z,20.87
2023-05-05T13:26:52.050Z,19.95
2023-05-05T13:27:05.718Z,19.95
2023-05-05T13:29:21.265Z,19.60
2023-05-05T13:31:47.934Z,19.79
2023-05-05T13:32:05.679Z,19.79
2023-05-05T13:34:14.340Z,19.79
2023-05-05T13:36:40.720Z,19.74
2023-05-05T13:37:05.683Z,19.74
2023-05-05T13:39:07.240Z,20.35
2023-05-05T13:41:33.678Z,20.00
2023-05-05T13:42:05.656Z,20.00
2023-05-05T13:44:00.298Z,20.28
2023-05-05T13:46:26.663Z,20.13
2023-05-05T13:47:05.790Z,20.13
2023-05-05T13:48:56.383Z,20.00
2023-05-05T13:51:26.370Z,19.88
2023-05-05T13:52:05.693Z,19.88
2023-05-05T13:53:52.740Z,20.29
2023-05-05T13:56:19.428Z,19.85
2023-05-05T13:57:05.727Z,19.85
2023-05-05T13:58:46.327Z,20.33
2023-05-05T14:01:14.838Z,20.14
2023-05-05T14:02:05.751Z,20.14
2023-05-05T14:03:41.442Z,20.53
2023-05-05T14:06:09.154Z,20.64
2023-05-05T14:07:05.711Z,20.64
2023-05-05T14:08:37.925Z,20.60
2023-05-05T14:11:04.748Z,20.55
2023-05-05T14:12:05.705Z,20.55
2023-05-05T14:13:31.236Z,20.30
2023-05-05T14:15:58.650Z,20.73
2023-05-05T14:17:05.788Z,20.73
2023-05-05T14:18:25.754Z,20.37
2023-05-05T14:20:52.176Z,19.84
2023-05-05T14:22:05.668Z,19.84
2023-05-05T14:23:18.661Z,19.81
2023-05-05T14:25:45.027Z,20.16
2023-05-05T14:27:05.715Z,20.16
2023-05-05T14:28:11.724Z,20.15
2023-05-05T14:30:39.540Z,19.99
2023-05-05T14:32:05.873Z,19.99
2023-05-05T14:33:06.184Z,19.55
2023-05-05T14:35:32.973Z,19.31
2023-05-05T14:37:05.732Z,19.31
2023-05-05T14:37:59.302Z,19.06
2023-05-05T14:40:25.953Z,18.70
2023-05-05T14:42:05.677Z,18.70
2023-05-05T14:42:52.327Z,18.79
2023-05-05T14:45:18.688Z,18.45
2023-05-05T14:47:05.680Z,18.45
2023-05-05T14:47:45.406Z,18.42
2023-05-05T14:50:11.931Z,17.78
2023-05-05T14:52:05.690Z,17.78
2023-05-05T14:52:40.099Z,17.60
2023-05-05T14:55:07.750Z,17.34
2023-05-05T14:57:05.678Z,17.34
2023-05-05T14:57:34.563Z,16.94
2023-05-05T15:00:01.162Z,16.75
2023-05-05T15:02:05.815Z,16.75
2023-05-05T15:02:27.571Z,16.64
2023-05-05T15:04:54.188Z,16.46
2023-05-05T15:07:05.691Z,16.46
2023-05-05T15:07:22.011Z,17.02
2023-05-05T15:09:48.461Z,16.91
2023-05-05T15:12:05.680Z,16.91
2023-05-05T15:12:14.854Z,17.06
2023-05-05T15:14:41.432Z,17.04
2023-05-05T15:17:05.678Z,17.04
2023-05-05T15:17:07.809Z,16.84
2023-05-05T15:19:34.235Z,16.79
2023-05-05T15:22:00.811Z,16.14
2023-05-05T15:22:05.667Z,16.14
2023-05-05T15:24:27.200Z,16.12
2023-05-05T15:26:53.620Z,15.72
2023-05-05T15:27:05.701Z,15.72
2023-05-05T15:29:20.044Z,15.65
2023-05-05T15:31:46.394Z,15.70
2023-05-05T15:32:05.730Z,15.70
2023-05-05T15:34:12.804Z,15.78
2023-05-05T15:36:39.203Z,15.85
2023-05-05T15:37:05.691Z,15.85
2023-05-05T15:39:05.680Z,16.06
2023-05-05T15:41:34.356Z,15.99
2023-05-05T15:42:05.654Z,15.99
2023-05-05T15:44:02.961Z,15.64
2023-05-05T15:46:32.733Z,16.22
2023-05-05T15:47:05.702Z,16.22
2023-05-05T15:48:59.335Z,16.15
2023-05-05T15:51:27.686Z,15.75
2023-05-05T15:52:05.671Z,15.75
2023-05-05T15:53:54.125Z,15.60
2023-05-05T15:56:20.754Z,15.64
2023-05-05T15:57:05.655Z,15.64
2023-05-05T15:58:47.208Z,15.93
2023-05-05T16:01:16.614Z,15.81
2023-05-05T16:02:05.730Z,15.81
2023-05-05T16:03:43.054Z,16.08
2023-05-05T16:06:11.783Z,15.68
2023-05-05T16:07:05.689Z,15.68
2023-05-05T16:08:38.629Z,14.82
2023-05-05T16:11:05.117Z,15.56
2023-05-05T16:12:05.959Z,15.56
2023-05-05T16:13:31.737Z,15.64
2023-05-05T16:15:58.071Z,15.81
2023-05-05T16:17:05.870Z,15.81
2023-05-05T16:18:24.463Z,15.56
2023-05-05T16:20:50.850Z,15.47
2023-05-05T16:22:05.717Z,15.47
2023-05-05T16:23:17.870Z,15.94
2023-05-05T16:25:44.920Z,15.74
2023-05-05T16:27:05.706Z,15.74
2023-05-05T16:28:11.246Z,15.58
2023-05-05T16:30:39.685Z,15.13
2023-05-05T16:32:05.742Z,15.13
2023-05-05T16:33:06.827Z,15.53
2023-05-05T16:35:33.347Z,15.23
2023-05-05T16:37:05.770Z,15.23
2023-05-05T16:38:01.082Z,15.65
2023-05-05T16:40:27.537Z,15.16
2023-05-05T16:42:05.673Z,15.16
2023-05-05T16:42:53.889Z,15.31
2023-05-05T16:45:20.416Z,15.77
2023-05-05T16:47:05.702Z,15.77
2023-05-05T16:47:46.962Z,15.35
2023-05-05T16:50:13.570Z,15.30
2023-05-05T16:52:05.663Z,15.30
2023-05-05T16:52:39.964Z,15.36
2023-05-05T16:55:06.824Z,15.03
2023-05-05T16:57:05.713Z,15.03
2023-05-05T16:57:33.393Z,14.49
2023-05-05T16:59:59.802Z,14.83
2023-05-05T17:02:26.381Z,14.84
2023-05-05T17:04:52.863Z,14.51
2023-05-05T17:07:05.696Z,14.51
2023-05-05T17:07:19.607Z,14.69
2023-05-05T17:09:45.959Z,14.61
2023-05-05T17:12:05.687Z,14.61
2023-05-05T17:12:12.319Z,14.51
2023-05-05T17:14:39.602Z,14.39
2023-05-05T17:17:06.854Z,14.09
2023-05-05T17:17:07.039Z,14.09
2023-05-05T17:19:33.220Z,14.09
2023-05-05T17:21:59.764Z,14.15
2023-05-05T17:22:05.694Z,14.15
2023-05-05T17:24:26.243Z,14.19
2023-05-05T17:26:52.812Z,13.31
2023-05-05T17:27:05.778Z,13.31
2023-05-05T17:29:23.155Z,14.34
2023-05-05T17:31:50.585Z,14.31
2023-05-05T17:32:05.716Z,14.31
2023-05-05T17:34:24.649Z,14.19
2023-05-05T17:36:51.296Z,13.81
2023-05-05T17:37:05.763Z,13.81
2023-05-05T17:39:17.724Z,14.39
2023-05-05T17:41:44.195Z,14.33
2023-05-05T17:42:05.695Z,14.33
2023-05-05T17:44:10.627Z,13.99
2023-05-05T17:46:37.304Z,14.03
2023-05-05T17:47:05.675Z,14.03
2023-05-05T17:49:03.940Z,14.12
2023-05-05T17:51:31.276Z,14.27
2023-05-05T17:52:05.711Z,14.27
2023-05-05T17:53:57.701Z,14.02
2023-05-05T17:56:24.317Z,14.35
2023-05-05T17:57:05.686Z,14.35
2023-05-05T17:58:50.735Z,14.34
2023-05-05T18:01:24.648Z,14.41
2023-05-05T18:02:05.767Z,14.41
2023-05-05T18:03:51.500Z,14.64
2023-05-05T18:06:18.146Z,14.72
2023-05-05T18:07:05.690Z,14.72
2023-05-05T18:08:47.098Z,14.64
2023-05-05T18:11:13.609Z,14.74
2023-05-05T18:12:05.704Z,14.74
2023-05-05T18:13:40.095Z,14.69
2023-05-05T18:16:06.884Z,14.00
2023-05-05T18:17:05.758Z,14.00
2023-05-05T18:18:33.495Z,14.28
2023-05-05T18:21:00.146Z,14.31
2023-05-05T18:22:05.679Z,14.31
2023-05-05T18:23:26.677Z,14.58
2023-05-05T18:25:53.158Z,14.42
2023-05-05T18:27:05.723Z,14.42
2023-05-05T18:28:20.311Z,13.91
2023-05-05T18:30:46.796Z,14.33
2023-05-05T18:32:05.773Z,14.33
2023-05-05T18:33:13.172Z,14.25
2023-05-05T18:35:39.567Z,14.15
2023-05-05T18:37:05.823Z,14.15
2023-05-05T18:38:09.062Z,14.17
2023-05-05T18:40:35.668Z,13.84
2023-05-05T18:42:05.712Z,13.84
2023-05-05T18:43:02.340Z,14.12
2023-05-05T18:45:32.927Z,14.20
2023-05-05T18:47:05.823Z,14.20
2023-05-05T18:47:59.583Z,14.06
2023-05-05T18:50:28.704Z,14.09
2023-05-05T18:52:05.705Z,14.09
2023-05-05T18:52:55.368Z,13.75
2023-05-05T18:55:21.981Z,14.13
2023-05-05T18:57:05.709Z,14.13
2023-05-05T18:57:48.358Z,13.97
2023-05-05T19:00:15.543Z,13.95
2023-05-05T19:02:05.865Z,13.95
2023-05-05T19:02:42.010Z,13.87
2023-05-05T19:05:09.021Z,13.82
2023-05-05T19:07:05.773Z,13.82
2023-05-05T19:07:36.039Z,13.57
2023-05-05T19:10:10.208Z,13.72
2023-05-05T19:12:05.709Z,13.72
2023-05-05T19:12:36.783Z,13.55
2023-05-05T19:15:03.447Z,13.21
2023-05-05T19:17:05.769Z,13.21
2023-05-05T19:17:30.092Z,13.19
2023-05-05T19:19:56.633Z,13.56
2023-05-05T19:22:05.783Z,13.56
2023-05-05T19:22:23.933Z,13.75
2023-05-05T19:24:50.482Z,13.58
2023-05-05T19:27:05.689Z,13.58
2023-05-05T19:27:17.384Z,13.64
2023-05-05T19:29:43.915Z,13.59
2023-05-05T19:32:05.797Z,13.59
2023-05-05T19:32:10.596Z,13.12
2023-05-05T19:34:37.233Z,13.17
2023-05-05T19:37:03.719Z,13.24
2023-05-05T19:37:05.716Z,13.24
2023-05-05T19:39:30.133Z,12.83
2023-05-05T19:41:56.824Z,13.09
2023-05-05T19:42:05.756Z,13.09
2023-05-05T19:44:23.843Z,13.03
2023-05-05T19:46:50.300Z,12.76
2023-05-05T19:47:05.690Z,12.76
2023-05-05T19:49:19.255Z,12.53
2023-05-05T19:51:47.529Z,12.88
2023-05-05T19:52:05.722Z,12.88
2023-05-05T19:54:13.996Z,12.84
2023-05-05T19:56:40.526Z,12.72
2023-05-05T19:57:05.714Z,12.72
2023-05-05T19:59:07.185Z,12.72
2023-05-05T20:01:35.112Z,12.60
2023-05-05T20:02:05.785Z,12.60
2023-05-05T20:04:03.117Z,12.60
2023-05-05T20:06:29.504Z,12.56
2023-05-05T20:07:05.701Z,12.56
2023-05-05T20:08:56.248Z,12.28
2023-05-05T20:11:22.961Z,12.33
2023-05-05T20:12:05.749Z,12.33
2023-05-05T20:13:49.894Z,12.12
2023-05-05T20:16:16.885Z,12.02
2023-05-05T20:17:05.723Z,12.02
2023-05-05T20:18:43.771Z,12.31
2023-05-05T20:21:10.527Z,12.28
2023-05-05T20:22:05.722Z,12.28
2023-05-05T20:23:37.551Z,10.95
2023-05-05T20:26:04.042Z,11.94
2023-05-05T20:27:05.761Z,11.94
2023-05-05T20:28:31.619Z,11.91
2023-05-05T20:30:58.010Z,11.66
2023-05-05T20:32:05.872Z,11.66
2023-05-05T20:33:24.631Z,12.02
2023-05-05T20:35:51.043Z,11.38
2023-05-05T20:37:05.758Z,11.38
2023-05-05T20:38:17.662Z,11.95
2023-05-05T20:40:44.079Z,11.93
2023-05-05T20:42:05.693Z,11.93
2023-05-05T20:43:10.380Z,11.70
2023-05-05T20:45:39.847Z,11.47
2023-05-05T20:47:05.953Z,11.47
2023-05-05T20:48:09.865Z,11.54
2023-05-05T20:50:40.568Z,11.28
2023-05-05T20:52:05.851Z,11.28
2023-05-05T20:53:08.275Z,11.84
2023-05-05T20:55:35.062Z,11.68
2023-05-05T21:00:13.045Z,11.80
2023-05-05T21:02:08.858Z,11.80
2023-05-05T21:06:29.702Z,11.76
2023-05-05T21:07:37.238Z,11.76
2023-05-05T21:09:03.034Z,11.74
2023-05-05T21:11:29.419Z,11.46
2023-05-05T21:12:05.708Z,11.46
2023-05-05T21:13:55.761Z,11.77
2023-05-05T21:16:22.142Z,11.77
2023-05-05T21:17:05.781Z,11.77
2023-05-05T21:18:48.653Z,11.77
2023-05-05T21:21:17.478Z,11.77
2023-05-05T21:22:05.740Z,11.77
2023-05-05T21:23:46.615Z,11.60
2023-05-05T21:26:13.144Z,11.81
2023-05-05T21:27:05.748Z,11.81
2023-05-05T21:28:39.501Z,11.78
2023-05-05T21:31:21.215Z,11.64
2023-05-05T21:32:05.826Z,11.64
2023-05-05T21:33:48.676Z,11.58